Time;durP1;ratioP1;P1;durP2;ratioP2;P2;SDS_P1;SDS_P2;PMS_P1;PMS_P2;Temp;Humidity;BMP_temperature;BMP_pressure;BME280_temperature;BME280_humidity;BME280_pressure;Samples;Min_cycle;Max_cycle;Signal;HPM_P1;HPM_P2
2022/04/16 00:01:42;;;;;;;28.67;15.15;;;;;;;;;;5001240;28;20026;-75
2022/04/16 00:04:09;;;;;;;32.75;16.90;;;;;;;;;;5014599;28;20483;-76
2022/04/16 00:06:35;;;;;;;26.80;14.75;;;;;;;;;;5014975;28;20116;-76
2022/04/16 00:09:01;;;;;;;31.25;16.40;;;;;;;;;;4997203;28;20117;-76
2022/04/16 00:11:27;;;;;;;32.13;15.98;;;;;;;;;;4978409;28;20030;-72
2022/04/16 00:13:53;;;;;;;27.33;15.15;;;;;;;;;;4995722;28;20034;-74
2022/04/16 00:16:19;;;;;;;27.15;15.02;;;;;;;;;;4995665;28;20033;-75
2022/04/16 00:18:45;;;;;;;22.83;13.98;;;;;;;;;;4992359;28;20317;-75
2022/04/16 00:21:12;;;;;;;30.40;14.48;;;;;;;;;;4979362;28;20022;-75
2022/04/16 00:23:39;;;;;;;23.67;12.65;;;;;;;;;;4995587;28;20018;-73
2022/04/16 00:26:07;;;;;;;20.15;12.52;;;;;;;;;;4995305;28;20022;-74
2022/04/16 00:28:33;;;;;;;24.48;14.02;;;;;;;;;;5008032;28;20468;-74
2022/04/16 00:30:59;;;;;;;30.08;13.77;;;;;;;;;;4996779;28;20442;-74
2022/04/16 00:33:26;;;;;;;24.42;14.45;;;;;;;;;;4998969;28;20030;-74
2022/04/16 00:35:52;;;;;;;20.80;13.88;;;;;;;;;;4990003;28;20022;-74
2022/04/16 00:38:18;;;;;;;23.65;15.02;;;;;;;;;;4994583;28;20098;-72
2022/04/16 00:40:44;;;;;;;24.00;14.13;;;;;;;;;;5009819;28;20022;-76
2022/04/16 00:43:43;;;;;;;24.35;14.80;;;;;;;;;;5012958;28;20534;-73
2022/04/16 00:46:09;;;;;;;24.20;14.32;;;;;;;;;;4960861;28;20038;-73
2022/04/16 00:48:35;;;;;;;26.13;15.77;;;;;;;;;;5008087;28;20048;-75
2022/04/16 00:51:01;;;;;;;22.38;13.00;;;;;;;;;;4998225;28;20473;-74
2022/04/16 00:53:30;;;;;;;20.23;10.73;;;;;;;;;;5014375;28;20026;-75
2022/04/16 00:55:58;;;;;;;12.75;8.52;;;;;;;;;;5006519;28;20026;-74
2022/04/16 00:58:24;;;;;;;13.48;7.90;;;;;;;;;;5006009;28;20122;-74
2022/04/16 01:00:50;;;;;;;14.98;8.60;;;;;;;;;;4996606;28;20053;-74
2022/04/16 01:03:16;;;;;;;16.27;7.50;;;;;;;;;;5014619;28;20373;-74
2022/04/16 01:05:42;;;;;;;10.45;6.93;;;;;;;;;;5007914;28;20027;-74
2022/04/16 01:08:08;;;;;;;14.45;7.15;;;;;;;;;;4993488;28;20061;-75
2022/04/16 01:10:35;;;;;;;11.85;7.25;;;;;;;;;;5008043;28;20101;-75
2022/04/16 01:13:05;;;;;;;12.63;6.72;;;;;;;;;;4997192;28;20026;-72
2022/04/16 01:15:31;;;;;;;11.93;6.20;;;;;;;;;;4999229;28;20151;-74
2022/04/16 01:17:59;;;;;;;10.63;6.43;;;;;;;;;;4987103;28;20105;-76
2022/04/16 01:20:25;;;;;;;11.70;7.25;;;;;;;;;;4988730;28;20025;-74
2022/04/16 01:22:52;;;;;;;10.75;5.78;;;;;;;;;;4998368;28;20488;-74
2022/04/16 01:25:18;;;;;;;9.45;6.25;;;;;;;;;;4993025;28;20046;-75
2022/04/16 01:27:46;;;;;;;12.52;6.30;;;;;;;;;;4982495;28;20109;-75
2022/04/16 01:30:12;;;;;;;9.85;5.88;;;;;;;;;;5003588;28;20042;-76
2022/04/16 01:32:38;;;;;;;11.45;6.13;;;;;;;;;;5007935;28;20412;-76
2022/04/16 01:35:05;;;;;;;8.38;5.97;;;;;;;;;;5012513;28;20033;-74
2022/04/16 01:37:34;;;;;;;11.50;6.30;;;;;;;;;;4997518;28;20026;-71
2022/04/16 01:40:00;;;;;;;12.65;6.63;;;;;;;;;;5012920;28;20388;-74
2022/04/16 01:42:26;;;;;;;7.32;5.28;;;;;;;;;;4985216;28;20037;-75
2022/04/16 01:44:52;;;;;;;7.68;6.13;;;;;;;;;;4999961;28;20399;-74
2022/04/16 01:47:18;;;;;;;8.50;5.40;;;;;;;;;;4999280;28;20027;-74
2022/04/16 01:49:44;;;;;;;7.15;5.05;;;;;;;;;;4990688;28;20485;-73
2022/04/16 01:52:10;;;;;;;8.25;5.55;;;;;;;;;;4975093;28;20062;-74
2022/04/16 01:54:36;;;;;;;9.27;5.05;;;;;;;;;;4973670;28;20027;-75
2022/04/16 01:57:03;;;;;;;12.27;5.40;;;;;;;;;;4973865;28;20484;-74
2022/04/16 01:59:29;;;;;;;9.43;4.80;;;;;;;;;;5008516;28;20037;-74
2022/04/16 02:01:56;;;;;;;12.18;5.63;;;;;;;;;;4994475;28;20027;-73
2022/04/16 02:04:22;;;;;;;7.85;4.85;;;;;;;;;;4994189;28;20105;-73
2022/04/16 02:06:50;;;;;;;10.15;4.32;;;;;;;;;;4976456;28;20037;-76
2022/04/16 02:09:16;;;;;;;6.38;4.07;;;;;;;;;;4994053;28;21427;-75
2022/04/16 02:11:42;;;;;;;8.55;4.55;;;;;;;;;;4992404;28;20177;-73
2022/04/16 02:14:08;;;;;;;7.57;3.55;;;;;;;;;;4992608;28;20510;-74
2022/04/16 02:16:34;;;;;;;4.90;3.40;;;;;;;;;;4992773;28;20033;-75
2022/04/16 02:19:00;;;;;;;8.82;2.92;;;;;;;;;;4992193;28;20102;-75
2022/04/16 02:21:27;;;;;;;9.23;3.30;;;;;;;;;;5008806;28;20022;-75
2022/04/16 02:23:53;;;;;;;5.72;2.90;;;;;;;;;;4993179;28;20026;-73
2022/04/16 02:26:22;;;;;;;2.40;2.20;;;;;;;;;;4992651;28;20023;-75
2022/04/16 02:28:48;;;;;;;6.35;2.78;;;;;;;;;;4991900;28;20036;-75
2022/04/16 02:31:14;;;;;;;6.55;2.75;;;;;;;;;;5010986;28;20029;-76
2022/04/16 02:33:40;;;;;;;5.40;2.42;;;;;;;;;;5006587;28;20026;-75
2022/04/16 02:36:07;;;;;;;5.63;2.65;;;;;;;;;;4975643;28;20030;-74
2022/04/16 02:38:33;;;;;;;3.10;2.22;;;;;;;;;;5005604;28;20026;-73
2022/04/16 02:40:59;;;;;;;7.57;2.90;;;;;;;;;;4994713;28;20118;-74
2022/04/16 02:43:25;;;;;;;5.93;2.65;;;;;;;;;;5008529;28;20109;-75
2022/04/16 02:48:35;;;;;;;6.90;2.75;;;;;;;;;;4998004;28;20092;-75
2022/04/16 02:51:02;;;;;;;4.85;1.83;;;;;;;;;;4992051;28;20384;-73
2022/04/16 02:53:31;;;;;;;3.88;2.38;;;;;;;;;;4997006;28;20021;-75
2022/04/16 02:55:57;;;;;;;5.38;2.85;;;;;;;;;;4993377;28;20037;-73
2022/04/16 02:58:23;;;;;;;4.80;2.72;;;;;;;;;;4992404;28;20027;-73
2022/04/16 03:00:49;;;;;;;3.45;2.72;;;;;;;;;;4992573;28;20476;-73
2022/04/16 03:03:15;;;;;;;5.68;2.92;;;;;;;;;;4992666;28;20030;-75
2022/04/16 03:05:41;;;;;;;3.83;2.78;;;;;;;;;;4975533;28;20030;-76
2022/04/16 03:08:09;;;;;;;5.15;2.35;;;;;;;;;;4983756;28;20505;-76
2022/04/16 03:10:35;;;;;;;6.38;2.97;;;;;;;;;;5004439;28;20038;-73
2022/04/16 03:13:02;;;;;;;4.32;2.10;;;;;;;;;;5013949;28;20057;-75
2022/04/16 03:18:12;;;;;;;5.90;2.17;;;;;;;;;;5015110;28;20036;-75
2022/04/16 03:20:40;;;;;;;4.60;2.15;;;;;;;;;;5016049;28;20018;-75
2022/04/16 03:23:06;;;;;;;5.28;2.20;;;;;;;;;;5015873;28;20018;-73
2022/04/16 03:25:32;;;;;;;6.97;2.28;;;;;;;;;;5016671;28;20392;-75
2022/04/16 03:27:58;;;;;;;2.67;1.58;;;;;;;;;;4990516;28;20077;-75
2022/04/16 03:30:24;;;;;;;3.22;1.83;;;;;;;;;;4998179;28;20041;-77
2022/04/16 03:32:50;;;;;;;3.83;1.77;;;;;;;;;;4981544;28;20117;-75
2022/04/16 03:35:18;;;;;;;5.80;2.30;;;;;;;;;;5000807;28;20454;-76
2022/04/16 03:37:44;;;;;;;3.70;1.70;;;;;;;;;;4999561;28;20026;-76
2022/04/16 03:40:12;;;;;;;3.92;2.03;;;;;;;;;;4999818;28;20029;-76
2022/04/16 03:42:49;;;;;;;4.28;2.20;;;;;;;;;;4998373;28;20057;-75
2022/04/16 03:45:16;;;;;;;4.40;2.03;;;;;;;;;;4996672;28;20109;-76
2022/04/16 03:47:42;;;;;;;5.45;2.20;;;;;;;;;;5001227;28;20030;-76
2022/04/16 03:50:08;;;;;;;7.55;2.40;;;;;;;;;;5015186;28;20036;-75
2022/04/16 03:52:44;;;;;;;6.00;2.60;;;;;;;;;;5002674;28;20484;-75
2022/04/16 04:00:48;;;;;;;4.05;2.13;;;;;;;;;;5000630;28;20056;-75
2022/04/16 04:03:15;;;;;;;6.25;2.78;;;;;;;;;;4995133;28;20047;-76
2022/04/16 04:05:41;;;;;;;9.32;2.35;;;;;;;;;;4995581;28;20477;-76
2022/04/16 04:08:08;;;;;;;8.55;2.47;;;;;;;;;;4986800;28;20088;-76
2022/04/16 04:10:34;;;;;;;5.50;2.63;;;;;;;;;;5015404;28;20182;-76
2022/04/16 04:13:00;;;;;;;3.88;2.15;;;;;;;;;;4997820;28;20033;-75
2022/04/16 04:15:32;;;;;;;3.60;2.28;;;;;;;;;;4977129;28;20014;-77
2022/04/16 04:17:59;;;;;;;4.90;2.15;;;;;;;;;;4984665;28;20033;-75
2022/04/16 04:20:25;;;;;;;7.63;2.47;;;;;;;;;;5002511;28;20495;-74
2022/04/16 04:22:51;;;;;;;4.28;1.85;;;;;;;;;;5010715;28;20022;-74
2022/04/16 04:25:17;;;;;;;5.75;2.38;;;;;;;;;;4995694;28;20058;-75
2022/04/16 04:27:43;;;;;;;7.25;2.80;;;;;;;;;;4977191;28;20069;-75
2022/04/16 04:30:09;;;;;;;4.43;2.30;;;;;;;;;;4995099;28;20129;-76
2022/04/16 04:32:36;;;;;;;5.03;2.90;;;;;;;;;;5007993;28;20121;-76
2022/04/16 04:35:02;;;;;;;3.45;2.85;;;;;;;;;;5014622;28;20109;-75
2022/04/16 04:37:28;;;;;;;7.78;3.47;;;;;;;;;;5010699;28;20041;-74
2022/04/16 04:39:54;;;;;;;7.65;3.15;;;;;;;;;;4984268;28;20058;-75
2022/04/16 04:42:24;;;;;;;8.70;3.40;;;;;;;;;;4994661;28;20056;-72
2022/04/16 04:44:50;;;;;;;6.43;3.55;;;;;;;;;;4998883;28;20546;-72
2022/04/16 04:47:16;;;;;;;7.35;3.70;;;;;;;;;;4986746;28;20034;-76
2022/04/16 04:49:42;;;;;;;10.60;5.28;;;;;;;;;;4982034;28;20072;-75
2022/04/16 04:52:08;;;;;;;10.57;6.05;;;;;;;;;;5011033;28;20030;-74
2022/04/16 04:54:34;;;;;;;11.88;5.78;;;;;;;;;;5001718;28;20108;-75
2022/04/16 04:57:00;;;;;;;9.10;6.47;;;;;;;;;;4993075;28;20053;-73
2022/04/16 04:59:26;;;;;;;8.70;6.20;;;;;;;;;;4989234;28;20527;-73
2022/04/16 05:01:52;;;;;;;9.63;6.65;;;;;;;;;;5009410;28;20042;-73
2022/04/16 05:04:18;;;;;;;11.50;6.57;;;;;;;;;;4980779;28;20072;-74
2022/04/16 05:06:44;;;;;;;10.60;6.85;;;;;;;;;;4996241;28;20109;-74
2022/04/16 05:09:11;;;;;;;9.15;6.22;;;;;;;;;;5000878;28;20038;-72
2022/04/16 05:11:37;;;;;;;9.60;7.28;;;;;;;;;;4994118;28;20037;-74
2022/04/16 05:14:03;;;;;;;8.80;6.70;;;;;;;;;;4998545;28;20022;-73
2022/04/16 05:16:29;;;;;;;6.50;5.80;;;;;;;;;;4995225;28;20034;-72
2022/04/16 05:18:55;;;;;;;7.18;5.53;;;;;;;;;;5004022;28;20041;-73
2022/04/16 05:21:21;;;;;;;6.40;5.72;;;;;;;;;;5005145;28;20384;-72
2022/04/16 05:23:47;;;;;;;9.15;5.40;;;;;;;;;;4981864;28;20026;-74
2022/04/16 05:26:13;;;;;;;6.97;5.32;;;;;;;;;;4986252;28;20549;-73
2022/04/16 05:28:39;;;;;;;7.78;5.28;;;;;;;;;;5012589;28;20483;-74
2022/04/16 05:31:07;;;;;;;8.18;5.78;;;;;;;;;;4998671;28;20372;-73
2022/04/16 05:36:17;;;;;;;5.93;4.65;;;;;;;;;;5002223;28;20100;-75
2022/04/16 05:38:44;;;;;;;8.52;4.32;;;;;;;;;;4996260;28;20032;-75
2022/04/16 05:41:10;;;;;;;9.60;3.88;;;;;;;;;;5004084;28;20014;-73
2022/04/16 05:43:36;;;;;;;4.97;3.75;;;;;;;;;;4983079;28;20026;-73
2022/04/16 05:46:02;;;;;;;6.90;4.47;;;;;;;;;;5001795;28;20100;-73
2022/04/16 05:48:28;;;;;;;5.15;4.40;;;;;;;;;;5005538;28;20027;-73
2022/04/16 05:50:56;;;;;;;6.40;4.43;;;;;;;;;;4976331;28;20496;-73
2022/04/16 05:53:23;;;;;;;10.50;4.43;;;;;;;;;;5000805;28;20113;-75
2022/04/16 05:55:50;;;;;;;6.78;4.60;;;;;;;;;;4995286;28;20053;-75
2022/04/16 05:58:16;;;;;;;5.18;4.18;;;;;;;;;;4998298;28;20023;-76
2022/04/16 06:00:43;;;;;;;4.75;3.78;;;;;;;;;;5006417;28;20026;-73
2022/04/16 06:03:09;;;;;;;5.80;3.30;;;;;;;;;;5004087;28;20015;-75
2022/04/16 06:05:36;;;;;;;6.03;4.75;;;;;;;;;;4984934;28;20060;-73
2022/04/16 06:08:02;;;;;;;5.82;3.33;;;;;;;;;;4996172;28;20412;-74
2022/04/16 06:10:28;;;;;;;4.10;3.58;;;;;;;;;;5007523;28;20030;-74
2022/04/16 06:12:54;;;;;;;5.72;3.92;;;;;;;;;;4995239;28;20022;-74
2022/04/16 06:15:20;;;;;;;8.70;4.03;;;;;;;;;;5004605;28;20108;-74
2022/04/16 06:17:46;;;;;;;3.85;3.00;;;;;;;;;;5001079;28;20399;-74
2022/04/16 06:20:12;;;;;;;3.67;3.38;;;;;;;;;;4980649;28;20113;-75
2022/04/16 06:22:39;;;;;;;3.80;3.45;;;;;;;;;;4990552;28;20018;-75
2022/04/16 06:25:06;;;;;;;7.55;3.92;;;;;;;;;;4989147;28;20064;-74
2022/04/16 06:27:32;;;;;;;6.40;4.20;;;;;;;;;;4986416;28;20026;-75
2022/04/16 06:29:58;;;;;;;5.53;3.65;;;;;;;;;;4970947;28;20399;-74
2022/04/16 06:32:24;;;;;;;4.82;3.40;;;;;;;;;;5006780;28;20049;-73
2022/04/16 06:34:50;;;;;;;6.25;2.90;;;;;;;;;;4993740;28;20416;-75
2022/04/16 06:37:16;;;;;;;4.57;2.40;;;;;;;;;;4985092;28;20042;-75
2022/04/16 06:39:42;;;;;;;3.45;2.10;;;;;;;;;;4998471;28;20023;-76
2022/04/16 06:42:08;;;;;;;7.72;2.85;;;;;;;;;;4976454;28;20498;-77
2022/04/16 06:44:34;;;;;;;2.55;2.13;;;;;;;;;;4994922;28;20042;-75
2022/04/16 06:47:00;;;;;;;6.65;2.65;;;;;;;;;;5001736;28;20029;-75
2022/04/16 06:49:26;;;;;;;4.60;2.40;;;;;;;;;;5005247;28;20033;-74
2022/04/16 06:51:53;;;;;;;9.90;3.35;;;;;;;;;;5000333;28;20415;-70
2022/04/16 06:54:19;;;;;;;3.63;2.95;;;;;;;;;;5002835;28;20026;-69
2022/04/16 06:56:45;;;;;;;3.22;2.42;;;;;;;;;;5007519;28;20029;-70
2022/04/16 06:59:11;;;;;;;4.90;2.70;;;;;;;;;;4993693;28;20059;-74
2022/04/16 07:01:37;;;;;;;4.28;2.47;;;;;;;;;;5004635;28;20046;-69
2022/04/16 07:04:03;;;;;;;3.25;2.65;;;;;;;;;;4996943;28;20018;-76
2022/04/16 07:06:29;;;;;;;4.20;2.90;;;;;;;;;;5008767;28;20095;-75
2022/04/16 07:08:55;;;;;;;5.00;2.35;;;;;;;;;;4995079;28;20037;-74
2022/04/16 07:11:21;;;;;;;4.13;2.80;;;;;;;;;;5007586;28;20127;-72
2022/04/16 07:13:47;;;;;;;9.45;2.70;;;;;;;;;;5000747;28;20030;-72
2022/04/16 07:16:13;;;;;;;6.43;2.80;;;;;;;;;;4997330;28;20022;-74
2022/04/16 07:18:39;;;;;;;4.55;2.72;;;;;;;;;;5004306;28;20034;-75
2022/04/16 07:21:05;;;;;;;3.60;2.63;;;;;;;;;;4996080;28;20084;-75
2022/04/16 07:23:31;;;;;;;15.20;3.30;;;;;;;;;;4999413;28;20117;-74
2022/04/16 07:25:57;;;;;;;5.55;3.00;;;;;;;;;;4993478;28;20023;-71
2022/04/16 07:28:23;;;;;;;6.50;3.30;;;;;;;;;;4970914;28;20022;-72
2022/04/16 07:30:50;;;;;;;5.53;2.70;;;;;;;;;;5001474;28;20661;-73
2022/04/16 07:33:16;;;;;;;4.85;2.80;;;;;;;;;;4977643;28;20030;-74
2022/04/16 07:35:42;;;;;;;5.35;2.58;;;;;;;;;;5001981;28;20026;-71
2022/04/16 07:38:08;;;;;;;2.95;2.28;;;;;;;;;;5002718;28;20105;-73
2022/04/16 07:40:34;;;;;;;5.18;2.00;;;;;;;;;;5001757;28;20064;-73
2022/04/16 07:43:01;;;;;;;3.75;2.20;;;;;;;;;;4978332;28;20077;-73
2022/04/16 07:45:27;;;;;;;2.92;1.98;;;;;;;;;;4989406;28;20050;-72
2022/04/16 07:47:53;;;;;;;2.92;1.88;;;;;;;;;;4988393;28;20089;-72
2022/04/16 07:50:19;;;;;;;2.85;1.88;;;;;;;;;;4992600;28;20029;-73
2022/04/16 07:52:46;;;;;;;3.03;1.52;;;;;;;;;;4998695;28;20033;-73
2022/04/16 07:55:12;;;;;;;6.72;1.85;;;;;;;;;;4999774;28;20030;-72
2022/04/16 07:57:38;;;;;;;2.65;1.65;;;;;;;;;;5000311;28;20054;-72
2022/04/16 08:00:08;;;;;;;2.22;1.60;;;;;;;;;;4998057;28;20022;-73
2022/04/16 08:02:34;;;;;;;2.10;1.38;;;;;;;;;;4996338;28;20085;-73
2022/04/16 08:05:00;;;;;;;3.72;1.40;;;;;;;;;;4999510;28;20061;-73
2022/04/16 08:10:08;;;;;;;3.63;1.30;;;;;;;;;;5003825;28;20443;-73
2022/04/16 08:12:34;;;;;;;2.70;1.50;;;;;;;;;;5013687;28;20057;-73
2022/04/16 08:14:59;;;;;;;3.85;1.60;;;;;;;;;;5004898;28;20026;-74
2022/04/16 08:17:25;;;;;;;2.28;1.50;;;;;;;;;;4993354;28;20052;-73
2022/04/16 08:19:51;;;;;;;3.15;1.48;;;;;;;;;;5011350;28;20040;-74
2022/04/16 08:22:18;;;;;;;2.78;1.40;;;;;;;;;;5014273;28;20017;-73
2022/04/16 08:25:43;;;;;;;3.75;1.63;;;;;;;;;;5019348;28;20424;-73
2022/04/16 08:27:34;;;;;;;4.28;1.35;;;;;;;;;;5008412;28;20387;-73
2022/04/16 08:30:00;;;;;;;4.40;2.33;;;;;;;;;;5013803;28;20022;-73
2022/04/16 08:32:26;;;;;;;2.72;1.42;;;;;;;;;;4995769;28;20492;-74
2022/04/16 08:34:52;;;;;;;3.50;1.70;;;;;;;;;;5013075;28;20037;-73
2022/04/16 08:37:18;;;;;;;5.35;1.92;;;;;;;;;;4994788;28;20022;-74
2022/04/16 08:39:44;;;;;;;4.93;1.33;;;;;;;;;;5011474;28;20117;-74
2022/04/16 08:42:11;;;;;;;3.35;1.63;;;;;;;;;;5013583;28;20092;-74
2022/04/16 08:44:39;;;;;;;2.88;1.85;;;;;;;;;;4994982;28;20459;-74
2022/04/16 08:47:06;;;;;;;2.33;1.77;;;;;;;;;;5016800;28;20026;-73
2022/04/16 08:49:33;;;;;;;5.13;2.20;;;;;;;;;;5012871;28;20034;-74
2022/04/16 08:51:59;;;;;;;3.22;2.22;;;;;;;;;;4995416;28;20033;-73
2022/04/16 08:54:26;;;;;;;4.25;2.00;;;;;;;;;;5014551;28;20029;-74
2022/04/16 08:56:52;;;;;;;4.35;1.85;;;;;;;;;;5013106;28;20029;-74
2022/04/16 08:59:18;;;;;;;1.70;1.60;;;;;;;;;;5012630;28;20037;-74
2022/04/16 09:01:44;;;;;;;3.60;1.80;;;;;;;;;;5014652;28;20030;-72
2022/04/16 09:04:22;;;;;;;2.17;1.60;;;;;;;;;;5012719;28;20026;-73
2022/04/16 09:07:01;;;;;;;3.55;1.60;;;;;;;;;;5012152;28;20030;-75
2022/04/16 09:09:28;;;;;;;3.47;1.20;;;;;;;;;;5010482;28;20034;-73
2022/04/16 09:11:54;;;;;;;1.60;1.40;;;;;;;;;;4995426;28;20030;-74
2022/04/16 09:14:20;;;;;;;3.38;1.17;;;;;;;;;;5012447;28;20054;-73
2022/04/16 09:16:46;;;;;;;2.65;1.20;;;;;;;;;;5016079;28;20369;-73
2022/04/16 09:19:21;;;;;;;4.22;1.60;;;;;;;;;;5024629;28;20032;-74
2022/04/16 09:21:47;;;;;;;3.58;1.30;;;;;;;;;;5012882;28;20026;-73
2022/04/16 09:24:13;;;;;;;5.38;1.75;;;;;;;;;;5013011;28;20026;-74
2022/04/16 09:26:40;;;;;;;2.17;1.52;;;;;;;;;;5012511;28;20156;-74
2022/04/16 09:29:09;;;;;;;3.15;1.63;;;;;;;;;;5011598;28;20503;-74
2022/04/16 09:31:38;;;;;;;3.05;1.42;;;;;;;;;;4995358;28;20040;-74
2022/04/16 09:34:04;;;;;;;3.95;1.85;;;;;;;;;;5012462;28;20014;-73
2022/04/16 09:36:30;;;;;;;4.22;2.10;;;;;;;;;;5012359;28;20033;-73
2022/04/16 09:39:00;;;;;;;2.33;1.55;;;;;;;;;;5012301;28;20030;-74
2022/04/16 09:41:33;;;;;;;3.67;1.50;;;;;;;;;;5012439;28;20053;-74
2022/04/16 09:43:59;;;;;;;6.03;1.55;;;;;;;;;;5009852;28;20488;-73
2022/04/16 09:46:27;;;;;;;3.90;1.80;;;;;;;;;;4987859;28;20469;-74
2022/04/16 09:48:55;;;;;;;1.85;1.52;;;;;;;;;;5009321;28;20065;-74
2022/04/16 09:51:24;;;;;;;2.38;1.70;;;;;;;;;;5003194;28;20018;-73
2022/04/16 09:53:52;;;;;;;4.40;1.10;;;;;;;;;;5012186;28;20435;-74
2022/04/16 09:56:18;;;;;;;2.08;1.20;;;;;;;;;;5012574;28;20049;-74
2022/04/16 09:58:52;;;;;;;2.65;1.30;;;;;;;;;;5011439;28;20025;-73
2022/04/16 10:01:18;;;;;;;1.73;0.93;;;;;;;;;;5012663;28;20105;-73
2022/04/16 10:03:45;;;;;;;2.15;1.17;;;;;;;;;;5014860;28;20464;-74
2022/04/16 10:06:11;;;;;;;3.97;1.95;;;;;;;;;;4996764;28;20432;-73
2022/04/16 10:08:37;;;;;;;2.13;1.20;;;;;;;;;;5011968;28;20049;-72
2022/04/16 10:11:04;;;;;;;2.83;1.63;;;;;;;;;;5011848;28;20032;-74
2022/04/16 10:13:32;;;;;;;3.50;1.48;;;;;;;;;;5011594;28;20061;-72
2022/04/16 10:15:59;;;;;;;2.50;1.45;;;;;;;;;;5010030;28;20033;-72
2022/04/16 10:18:26;;;;;;;1.60;1.10;;;;;;;;;;5008939;28;20072;-73
2022/04/16 10:20:56;;;;;;;2.72;1.15;;;;;;;;;;5010304;28;20030;-73
2022/04/16 10:23:27;;;;;;;3.05;1.63;;;;;;;;;;5010439;28;20017;-74
2022/04/16 10:25:59;;;;;;;1.70;1.10;;;;;;;;;;5012128;28;20022;-73
2022/04/16 10:28:27;;;;;;;3.05;1.40;;;;;;;;;;5010937;28;20030;-74
2022/04/16 10:30:54;;;;;;;2.63;1.83;;;;;;;;;;5011969;28;20040;-72
2022/04/16 10:33:24;;;;;;;3.20;1.83;;;;;;;;;;5011821;28;20484;-73
2022/04/16 10:35:58;;;;;;;5.18;1.20;;;;;;;;;;5011770;28;20030;-73
2022/04/16 10:38:24;;;;;;;1.77;1.35;;;;;;;;;;5010537;28;20396;-73
2022/04/16 10:40:57;;;;;;;7.38;1.60;;;;;;;;;;5011743;28;20045;-73
2022/04/16 10:43:26;;;;;;;3.80;1.77;;;;;;;;;;5011297;28;20021;-74
2022/04/16 10:45:56;;;;;;;2.75;1.45;;;;;;;;;;5011457;28;20496;-72
2022/04/16 10:48:22;;;;;;;2.20;1.60;;;;;;;;;;4991129;28;20080;-72
2022/04/16 10:50:49;;;;;;;3.47;1.73;;;;;;;;;;5008465;28;20030;-73
2022/04/16 10:53:15;;;;;;;1.60;1.08;;;;;;;;;;5007554;28;20101;-74
2022/04/16 10:55:48;;;;;;;1.98;1.27;;;;;;;;;;5009981;28;20022;-73
2022/04/16 10:58:16;;;;;;;4.20;1.40;;;;;;;;;;4987360;28;20073;-74
2022/04/16 11:00:46;;;;;;;2.97;1.10;;;;;;;;;;5010401;28;20025;-74
2022/04/16 11:03:13;;;;;;;1.85;0.98;;;;;;;;;;4992706;28;20040;-73
2022/04/16 11:05:43;;;;;;;3.75;1.90;;;;;;;;;;5011363;28;20022;-73
2022/04/16 11:08:11;;;;;;;2.72;1.33;;;;;;;;;;5010491;28;20033;-73
2022/04/16 11:10:38;;;;;;;3.55;1.90;;;;;;;;;;4993619;28;20034;-74
2022/04/16 11:13:05;;;;;;;3.25;1.50;;;;;;;;;;5011250;28;20029;-73
2022/04/16 11:15:31;;;;;;;3.65;1.60;;;;;;;;;;5011256;28;20103;-73
2022/04/16 11:17:58;;;;;;;3.42;1.30;;;;;;;;;;5010604;28;20030;-73
2022/04/16 11:20:26;;;;;;;5.65;1.65;;;;;;;;;;5010986;28;20037;-73
2022/04/16 11:22:52;;;;;;;4.00;2.40;;;;;;;;;;5008605;28;20014;-72
2022/04/16 11:25:21;;;;;;;1.90;1.10;;;;;;;;;;5014008;28;20068;-73
2022/04/16 11:36:11;;;;;;;2.05;1.30;;;;;;;;;;5014416;28;20041;-73
2022/04/16 11:38:41;;;;;;;1.75;0.90;;;;;;;;;;5013613;28;20029;-74
2022/04/16 11:41:12;;;;;;;2.83;1.20;;;;;;;;;;5014956;28;20029;-74
2022/04/16 11:43:46;;;;;;;1.15;0.75;;;;;;;;;;5015106;28;20022;-73
2022/04/16 11:46:13;;;;;;;5.82;1.08;;;;;;;;;;5014803;28;20060;-73
2022/04/16 11:48:46;;;;;;;2.22;1.10;;;;;;;;;;5012848;28;20144;-74
2022/04/16 11:51:12;;;;;;;4.03;1.40;;;;;;;;;;5014419;28;20026;-72
2022/04/16 11:53:50;;;;;;;4.00;1.88;;;;;;;;;;5014875;28;20021;-73
2022/04/16 11:56:22;;;;;;;4.88;1.50;;;;;;;;;;4996846;28;20033;-73
2022/04/16 11:58:52;;;;;;;3.25;1.20;;;;;;;;;;5012861;28;20050;-73
2022/04/16 12:01:21;;;;;;;2.63;1.27;;;;;;;;;;5012388;28;20396;-73
2022/04/16 12:03:48;;;;;;;3.42;1.10;;;;;;;;;;4994783;28;20041;-75
2022/04/16 12:06:14;;;;;;;3.20;1.52;;;;;;;;;;4994820;28;20076;-73
2022/04/16 12:08:40;;;;;;;2.47;1.33;;;;;;;;;;5011420;28;20403;-72
2022/04/16 12:11:06;;;;;;;3.35;1.05;;;;;;;;;;5012483;28;20026;-72
2022/04/16 12:13:42;;;;;;;1.05;0.82;;;;;;;;;;5012663;28;20442;-73
2022/04/16 12:16:10;;;;;;;2.45;1.05;;;;;;;;;;5014185;28;20053;-73
2022/04/16 12:18:40;;;;;;;2.55;1.00;;;;;;;;;;5012931;28;20492;-73
2022/04/16 12:21:10;;;;;;;3.50;1.38;;;;;;;;;;5013950;28;20025;-73
2022/04/16 12:23:38;;;;;;;1.52;1.02;;;;;;;;;;5014256;28;20451;-75
2022/04/16 12:26:07;;;;;;;1.63;1.17;;;;;;;;;;5014291;28;20030;-73
2022/04/16 12:28:35;;;;;;;2.15;0.93;;;;;;;;;;5013028;28;20380;-72
2022/04/16 12:31:01;;;;;;;5.05;1.27;;;;;;;;;;4996357;28;20022;-73
2022/04/16 12:33:27;;;;;;;2.17;0.95;;;;;;;;;;5013695;28;20105;-73
2022/04/16 12:35:57;;;;;;;4.78;1.48;;;;;;;;;;5014044;28;20032;-73
2022/04/16 12:38:24;;;;;;;2.17;1.17;;;;;;;;;;5012496;28;20053;-74
2022/04/16 12:40:51;;;;;;;2.85;0.90;;;;;;;;;;5012495;28;20133;-73
2022/04/16 12:43:17;;;;;;;1.98;1.08;;;;;;;;;;5013137;28;20053;-73
2022/04/16 12:45:43;;;;;;;2.15;0.95;;;;;;;;;;4995646;28;20033;-73
2022/04/16 12:48:09;;;;;;;2.60;1.08;;;;;;;;;;5012506;28;20026;-73
2022/04/16 12:50:36;;;;;;;1.48;0.82;;;;;;;;;;5013076;28;20492;-73
2022/04/16 12:53:04;;;;;;;2.78;1.48;;;;;;;;;;5013402;28;20041;-73
2022/04/16 12:55:30;;;;;;;4.40;1.45;;;;;;;;;;5014170;28;20026;-74
2022/04/16 12:57:56;;;;;;;1.45;0.98;;;;;;;;;;5012760;28;20026;-73
2022/04/16 13:00:23;;;;;;;2.67;0.93;;;;;;;;;;5013339;28;20459;-73
2022/04/16 13:02:49;;;;;;;3.17;1.20;;;;;;;;;;5013561;28;20148;-73
2022/04/16 13:05:16;;;;;;;2.17;0.80;;;;;;;;;;5013181;28;20399;-73
2022/04/16 13:07:44;;;;;;;4.53;0.88;;;;;;;;;;4994741;28;20030;-71
2022/04/16 13:10:10;;;;;;;2.22;1.00;;;;;;;;;;5013019;28;20479;-73
2022/04/16 13:12:37;;;;;;;2.17;1.10;;;;;;;;;;5011959;28;20324;-73
2022/04/16 13:15:03;;;;;;;2.97;0.73;;;;;;;;;;5013041;28;20109;-74
2022/04/16 13:17:30;;;;;;;2.40;1.05;;;;;;;;;;5011880;28;20037;-73
2022/04/16 13:19:56;;;;;;;2.35;1.30;;;;;;;;;;5013206;28;20435;-73
2022/04/16 13:22:22;;;;;;;2.72;1.27;;;;;;;;;;5012856;28;20040;-76
2022/04/16 13:24:48;;;;;;;5.15;1.50;;;;;;;;;;5013882;28;20073;-73
2022/04/16 13:27:14;;;;;;;2.03;0.98;;;;;;;;;;5012880;28;20030;-72
2022/04/16 13:29:40;;;;;;;1.83;1.25;;;;;;;;;;5013496;28;20034;-74
2022/04/16 13:32:08;;;;;;;1.60;0.88;;;;;;;;;;5012995;28;20034;-73
2022/04/16 13:34:34;;;;;;;2.80;0.90;;;;;;;;;;5014516;28;20479;-73
2022/04/16 13:37:01;;;;;;;4.63;0.90;;;;;;;;;;5015533;28;20033;-72
2022/04/16 13:42:11;;;;;;;2.03;0.90;;;;;;;;;;5011996;28;20152;-75
2022/04/16 13:44:37;;;;;;;3.08;1.10;;;;;;;;;;5012791;28;20045;-73
2022/04/16 13:47:04;;;;;;;4.38;1.20;;;;;;;;;;5011036;28;20109;-71
2022/04/16 13:49:30;;;;;;;2.00;1.10;;;;;;;;;;5019148;28;20041;-73
2022/04/16 13:51:57;;;;;;;1.17;0.77;;;;;;;;;;5009237;28;21108;-73
2022/04/16 13:54:23;;;;;;;2.60;1.00;;;;;;;;;;5010296;28;20025;-74
2022/04/16 13:56:49;;;;;;;1.20;0.88;;;;;;;;;;4992712;28;20036;-73
2022/04/16 13:59:15;;;;;;;1.90;0.90;;;;;;;;;;5009493;28;20030;-72
2022/04/16 14:01:41;;;;;;;2.72;0.90;;;;;;;;;;4992781;28;20125;-73
2022/04/16 14:04:07;;;;;;;2.50;0.77;;;;;;;;;;5010421;28;20152;-74
2022/04/16 14:06:33;;;;;;;0.88;0.60;;;;;;;;;;4994421;28;20065;-73
2022/04/16 14:09:00;;;;;;;1.38;0.85;;;;;;;;;;5033004;22;20040;-71
2022/04/16 14:11:26;;;;;;;2.67;0.85;;;;;;;;;;5051957;28;20056;-71
2022/04/16 14:13:52;;;;;;;1.70;0.80;;;;;;;;;;5033738;28;20021;-72
2022/04/16 14:16:19;;;;;;;3.20;0.70;;;;;;;;;;5051407;28;20099;-71
2022/04/16 14:18:45;;;;;;;3.15;0.80;;;;;;;;;;5030905;28;20411;-71
2022/04/16 14:21:11;;;;;;;2.30;0.98;;;;;;;;;;5049363;28;20036;-72
2022/04/16 14:23:37;;;;;;;1.42;0.90;;;;;;;;;;5041592;28;20026;-71
2022/04/16 14:26:04;;;;;;;3.15;1.13;;;;;;;;;;5029410;28;20484;-72
2022/04/16 14:28:30;;;;;;;1.25;0.90;;;;;;;;;;5029060;28;20029;-72
2022/04/16 14:30:57;;;;;;;1.85;0.90;;;;;;;;;;5029212;28;20088;-72
2022/04/16 14:33:22;;;;;;;3.70;1.02;;;;;;;;;;5029866;28;20129;-70
2022/04/16 14:35:48;;;;;;;1.75;0.82;;;;;;;;;;5030962;28;20060;-72
2022/04/16 14:38:16;;;;;;;2.55;1.00;;;;;;;;;;5030289;28;20103;-71
2022/04/16 14:40:42;;;;;;;3.33;0.73;;;;;;;;;;5030069;28;20101;-71
2022/04/16 14:43:09;;;;;;;2.85;1.13;;;;;;;;;;5031177;28;20104;-72
2022/04/16 14:45:36;;;;;;;1.50;0.80;;;;;;;;;;5031072;28;20037;-71
2022/04/16 14:48:05;;;;;;;3.67;0.90;;;;;;;;;;5030297;28;20535;-73
2022/04/16 14:50:31;;;;;;;2.50;1.10;;;;;;;;;;5013026;28;20562;-72
2022/04/16 14:52:58;;;;;;;2.20;0.90;;;;;;;;;;5030867;28;20372;-71
2022/04/16 14:55:24;;;;;;;1.70;1.00;;;;;;;;;;5013229;28;20124;-69
2022/04/16 14:57:50;;;;;;;3.42;0.75;;;;;;;;;;5030256;28;20018;-72
2022/04/16 15:00:16;;;;;;;2.63;0.98;;;;;;;;;;5013358;28;20045;-72
2022/04/16 15:02:42;;;;;;;2.92;0.80;;;;;;;;;;5030894;28;20061;-71
2022/04/16 15:05:09;;;;;;;2.78;1.17;;;;;;;;;;5029770;28;20029;-72
2022/04/16 15:07:35;;;;;;;3.30;1.20;;;;;;;;;;5030189;28;20696;-72